createdAt,value
2017-03-15T00:00:36.772Z,10.43
2017-03-15T00:01:17.260Z,10.43
2017-03-15T00:01:57.741Z,10.3
2017-03-15T00:02:38.234Z,10.43
2017-03-15T00:04:51.148Z,10.46
2017-03-15T00:05:31.505Z,10.33
2017-03-15T00:06:11.993Z,10.42
2017-03-15T00:06:52.505Z,10.34
2017-03-15T00:07:32.971Z,10.4
2017-03-15T00:08:13.363Z,10.42
2017-03-15T00:08:53.824Z,10.42
2017-03-15T00:09:34.334Z,10.43
2017-03-15T00:10:14.746Z,10.36
2017-03-15T00:10:55.223Z,10.3
2017-03-15T00:11:35.675Z,10.4
2017-03-15T00:12:16.121Z,10.43
2017-03-15T00:12:56.565Z,10.3
2017-03-15T00:13:37.021Z,10.34
2017-03-15T00:14:17.444Z,10.34
2017-03-15T00:14:57.929Z,10.24
2017-03-15T00:15:38.378Z,10.3
2017-03-15T00:17:36.053Z,10.3
2017-03-15T00:18:16.413Z,10.3
2017-03-15T00:18:56.878Z,10.33
2017-03-15T00:19:37.326Z,10.25
2017-03-15T00:20:17.804Z,10.25
2017-03-15T00:20:58.245Z,10.22
2017-03-15T00:21:38.672Z,10.21
2017-03-15T00:22:19.092Z,10.14
2017-03-15T00:24:11.970Z,10.14
2017-03-15T00:24:52.201Z,10.1
2017-03-15T00:25:32.662Z,10.12
2017-03-15T00:26:13.133Z,10.15
2017-03-15T00:26:53.611Z,10.1
2017-03-15T00:29:06.829Z,10.15
2017-03-15T00:29:47.073Z,10.03
2017-03-15T00:30:27.528Z,10.12
2017-03-15T00:31:07.950Z,10.06
2017-03-15T00:31:48.416Z,10.03
2017-03-15T00:32:28.903Z,10.12
2017-03-15T00:33:09.343Z,10.01
2017-03-15T00:33:49.800Z,10.06
2017-03-15T00:34:30.271Z,10.07
2017-03-15T00:35:10.735Z,10.14
2017-03-15T00:35:51.168Z,10.03
2017-03-15T00:36:31.622Z,10.01
2017-03-15T00:37:12.055Z,10.09
2017-03-15T00:37:52.540Z,9.99
2017-03-15T00:38:33.005Z,9.99
2017-03-15T00:39:13.433Z,10.1
2017-03-15T00:39:53.890Z,10.14
2017-03-15T00:40:34.372Z,10.07
2017-03-15T00:41:14.774Z,10.01
2017-03-15T00:41:55.261Z,10.09
2017-03-15T00:42:35.702Z,9.96
2017-03-15T00:43:16.124Z,10.04
2017-03-15T00:43:56.575Z,10.04
2017-03-15T00:44:37.019Z,10.09
2017-03-15T00:45:17.478Z,9.96
2017-03-15T00:45:57.925Z,10.01
2017-03-15T00:46:38.340Z,10.06
2017-03-15T00:47:18.793Z,10.06
2017-03-15T00:49:31.526Z,10.01
2017-03-15T00:50:12.005Z,10
2017-03-15T00:50:52.492Z,10.01
2017-03-15T00:51:32.973Z,9.97
2017-03-15T00:52:13.479Z,9.94
2017-03-15T00:52:53.963Z,10.01
2017-03-15T00:53:34.424Z,10.06
2017-03-15T00:55:32.107Z,9.96
2017-03-15T00:56:12.505Z,9.85
2017-03-15T00:56:52.976Z,9.93
2017-03-15T00:57:33.432Z,9.94
2017-03-15T00:58:14.035Z,9.89
2017-03-15T00:58:54.471Z,9.91
2017-03-15T00:59:34.925Z,9.82
2017-03-15T01:01:22.522Z,9.89
2017-03-15T01:02:02.859Z,9.99
2017-03-15T01:02:43.338Z,9.91
2017-03-15T01:03:23.782Z,10.03
2017-03-15T01:04:04.234Z,10.04
2017-03-15T01:04:44.686Z,9.96
2017-03-15T01:05:25.148Z,9.91
2017-03-15T01:06:05.616Z,9.94
2017-03-15T01:06:46.092Z,9.91
2017-03-15T01:08:23.594Z,9.85
2017-03-15T01:09:04.028Z,9.89
2017-03-15T01:09:44.493Z,9.86
2017-03-15T01:10:24.933Z,9.94
2017-03-15T01:11:05.366Z,9.82
2017-03-15T01:11:45.816Z,9.79
2017-03-15T01:12:26.247Z,9.86
2017-03-15T01:13:06.632Z,9.85
2017-03-15T01:13:47.051Z,9.85
2017-03-15T01:15:39.556Z,9.82
2017-03-15T01:16:19.926Z,9.86
2017-03-15T01:17:00.323Z,9.78
2017-03-15T01:17:40.729Z,9.82
2017-03-15T01:18:21.109Z,9.89
2017-03-15T01:19:01.513Z,9.82
2017-03-15T01:19:41.909Z,9.82
2017-03-15T01:20:22.347Z,9.78
2017-03-15T01:21:02.751Z,9.76
2017-03-15T01:21:43.153Z,9.78
2017-03-15T01:23:40.943Z,9.81
2017-03-15T01:24:21.143Z,9.76
2017-03-15T01:25:01.558Z,9.75
2017-03-15T01:25:41.961Z,9.76
2017-03-15T01:26:22.384Z,9.73
2017-03-15T01:27:02.834Z,9.7
2017-03-15T01:27:43.198Z,9.76
2017-03-15T01:28:23.608Z,9.67
2017-03-15T01:30:36.628Z,9.64
2017-03-15T01:31:16.982Z,9.64
2017-03-15T01:31:57.405Z,9.64
2017-03-15T01:33:55.071Z,9.63
2017-03-15T01:34:35.340Z,9.58
2017-03-15T01:35:15.753Z,9.6
2017-03-15T01:35:56.173Z,9.61
2017-03-15T01:36:36.566Z,9.6
2017-03-15T01:37:16.967Z,9.49
2017-03-15T01:37:57.349Z,9.58
2017-03-15T01:38:37.756Z,9.52
2017-03-15T01:39:18.176Z,9.56
2017-03-15T01:39:58.609Z,9.6
2017-03-15T01:40:39.029Z,9.49
2017-03-15T01:41:19.457Z,9.46
2017-03-15T01:43:06.976Z,9.53
2017-03-15T01:43:47.253Z,9.49
2017-03-15T01:44:27.661Z,9.56
2017-03-15T01:45:08.059Z,9.49
2017-03-15T01:45:48.484Z,9.52
2017-03-15T01:46:28.893Z,9.52
2017-03-15T01:47:09.303Z,9.49
2017-03-15T01:47:49.734Z,9.49
2017-03-15T01:48:30.162Z,9.5
2017-03-15T01:49:10.536Z,9.49
2017-03-15T01:50:48.135Z,9.49
2017-03-15T01:51:28.271Z,9.52
2017-03-15T01:53:15.922Z,9.43
2017-03-15T01:53:56.156Z,9.42
2017-03-15T01:55:48.649Z,9.42
2017-03-15T01:56:29.082Z,9.4
2017-03-15T01:57:09.564Z,9.43
2017-03-15T01:57:50.009Z,9.4
2017-03-15T01:58:30.468Z,9.46
2017-03-15T01:59:10.867Z,9.35
2017-03-15T01:59:51.306Z,9.4
2017-03-15T02:00:31.744Z,9.43
2017-03-15T02:01:12.175Z,9.49
2017-03-15T02:01:52.625Z,9.42
2017-03-15T02:02:33.072Z,9.5
2017-03-15T02:03:13.508Z,9.43
2017-03-15T02:03:53.948Z,9.5
2017-03-15T02:04:34.394Z,9.53
2017-03-15T02:05:14.837Z,9.48
2017-03-15T02:05:55.286Z,9.38
2017-03-15T02:06:35.730Z,9.38
2017-03-15T02:07:16.182Z,9.42
2017-03-15T02:07:56.615Z,9.35
2017-03-15T02:08:37.049Z,9.38
2017-03-15T02:09:17.490Z,9.35
2017-03-15T02:09:57.922Z,9.31
2017-03-15T02:10:38.369Z,9.38
2017-03-15T02:11:18.818Z,9.38
2017-03-15T02:11:59.267Z,9.35
2017-03-15T02:12:39.705Z,9.3
2017-03-15T02:13:20.144Z,9.31
2017-03-15T02:14:00.586Z,9.4
2017-03-15T02:14:41.020Z,9.42
2017-03-15T02:16:39.047Z,9.5
2017-03-15T02:17:19.332Z,9.39
2017-03-15T02:17:59.759Z,9.46
2017-03-15T02:18:40.201Z,9.46
2017-03-15T02:20:53.132Z,9.42
2017-03-15T02:21:33.389Z,9.42
2017-03-15T02:23:30.960Z,9.48
2017-03-15T02:24:11.393Z,9.43
2017-03-15T02:24:51.828Z,9.4
2017-03-15T02:25:32.260Z,9.4
2017-03-15T02:26:12.700Z,9.34
2017-03-15T02:26:53.152Z,9.34
2017-03-15T02:27:33.594Z,9.34
2017-03-15T02:28:14.030Z,9.32
2017-03-15T02:28:54.464Z,9.32
2017-03-15T02:29:34.929Z,9.32
2017-03-15T02:30:15.353Z,9.27
2017-03-15T02:30:55.798Z,9.21
2017-03-15T02:31:36.235Z,9.27
2017-03-15T02:32:16.679Z,9.2
2017-03-15T02:32:57.123Z,9.32
2017-03-15T02:33:37.572Z,9.28
2017-03-15T02:34:18.003Z,9.2
2017-03-15T02:34:58.451Z,9.16
2017-03-15T02:35:38.882Z,9.24
2017-03-15T02:36:19.323Z,9.2
2017-03-15T02:36:59.775Z,9.21
2017-03-15T02:37:40.194Z,9.2
2017-03-15T02:38:20.635Z,9.24
2017-03-15T02:39:01.089Z,9.25
2017-03-15T02:39:41.537Z,9.23
2017-03-15T02:40:21.982Z,9.21
2017-03-15T02:41:02.428Z,9.25
2017-03-15T02:41:42.868Z,9.2
2017-03-15T02:42:23.294Z,9.24
2017-03-15T02:43:03.741Z,9.2
2017-03-15T02:43:44.177Z,9.15
2017-03-15T02:44:24.631Z,9.18
2017-03-15T02:45:05.072Z,9.21
2017-03-15T02:45:45.554Z,9.16
2017-03-15T02:46:25.996Z,9.24
2017-03-15T02:47:06.410Z,9.09
2017-03-15T02:47:46.801Z,9.16
2017-03-15T02:48:27.199Z,9.15
2017-03-15T02:49:07.602Z,9.15
2017-03-15T02:49:48.015Z,9.15
2017-03-15T02:50:28.442Z,9.1
2017-03-15T02:52:41.206Z,9.04
2017-03-15T02:53:21.600Z,9.04
2017-03-15T02:54:02.005Z,9.09
2017-03-15T02:56:14.750Z,9.06
2017-03-15T02:56:55.013Z,9.05
2017-03-15T02:57:35.461Z,9.01
2017-03-15T02:58:15.874Z,9.04
2017-03-15T02:58:56.262Z,9.02
2017-03-15T02:59:36.655Z,9.05
2017-03-15T03:00:17.068Z,9.01
2017-03-15T03:00:57.452Z,8.99
2017-03-15T03:01:37.835Z,8.99
2017-03-15T03:02:18.274Z,8.94
2017-03-15T03:02:58.698Z,8.91
2017-03-15T03:03:39.115Z,8.91
2017-03-15T03:04:19.518Z,8.93
2017-03-15T03:06:07.011Z,8.91
2017-03-15T03:06:47.386Z,8.86
2017-03-15T03:07:27.823Z,8.87
2017-03-15T03:08:08.255Z,8.86
2017-03-15T03:08:48.688Z,8.78
2017-03-15T03:09:29.116Z,8.78
2017-03-15T03:11:16.645Z,8.79
2017-03-15T03:11:56.912Z,8.76
2017-03-15T03:12:37.347Z,8.71
2017-03-15T03:14:14.793Z,8.69
2017-03-15T03:14:55.069Z,8.63
2017-03-15T03:15:35.478Z,8.68
2017-03-15T03:16:15.863Z,8.6
2017-03-15T03:16:56.275Z,8.63
2017-03-15T03:17:36.670Z,8.66
2017-03-15T03:18:17.100Z,8.57
2017-03-15T03:18:57.513Z,8.66
2017-03-15T03:19:37.918Z,8.6
2017-03-15T03:20:18.312Z,8.65
2017-03-15T03:22:05.900Z,8.66
2017-03-15T03:22:46.286Z,8.6
2017-03-15T03:23:26.699Z,8.48
2017-03-15T03:24:07.123Z,8.53
2017-03-15T03:24:47.554Z,8.54
2017-03-15T03:25:27.986Z,8.48
2017-03-15T03:26:08.430Z,8.51
2017-03-15T03:26:48.857Z,8.48
2017-03-15T03:27:29.315Z,8.42
2017-03-15T03:28:09.741Z,8.29
2017-03-15T03:28:50.191Z,8.3
2017-03-15T03:29:30.647Z,8.39
2017-03-15T03:30:11.087Z,8.45
2017-03-15T03:30:51.531Z,8.4
2017-03-15T03:31:31.968Z,8.36
2017-03-15T03:32:12.395Z,8.32
2017-03-15T03:32:52.831Z,8.33
2017-03-15T03:33:33.276Z,8.37
2017-03-15T03:34:13.731Z,8.33
2017-03-15T03:34:54.175Z,8.32
2017-03-15T03:35:34.606Z,8.33
2017-03-15T03:36:15.068Z,8.35
2017-03-15T03:36:55.490Z,8.3
2017-03-15T03:37:35.940Z,8.32
2017-03-15T03:38:16.380Z,8.32
2017-03-15T03:38:56.821Z,8.39
2017-03-15T03:39:37.263Z,8.36
2017-03-15T03:40:17.711Z,8.29
2017-03-15T03:40:58.183Z,8.28
2017-03-15T03:41:38.603Z,8.25
2017-03-15T03:42:19.049Z,8.29
2017-03-15T03:42:59.480Z,8.21
2017-03-15T03:43:39.925Z,8.22
2017-03-15T03:44:20.358Z,8.22
2017-03-15T03:45:00.790Z,8.26
2017-03-15T03:45:41.231Z,8.2
2017-03-15T03:46:21.687Z,8.25
2017-03-15T03:47:02.134Z,8.25
2017-03-15T03:47:42.581Z,8.25
2017-03-15T03:48:23.032Z,8.18
2017-03-15T03:49:03.445Z,8.15
2017-03-15T03:49:43.905Z,8.08
2017-03-15T03:50:24.339Z,8.07
2017-03-15T03:51:04.778Z,8.17
2017-03-15T03:51:45.221Z,8.03
2017-03-15T03:52:25.653Z,8.04
2017-03-15T03:53:06.114Z,8.07
2017-03-15T03:53:46.548Z,8.07
2017-03-15T03:54:27.003Z,8.1
2017-03-15T03:55:07.443Z,8.03
2017-03-15T03:55:47.897Z,8.02
2017-03-15T03:56:28.346Z,7.92
2017-03-15T03:57:08.779Z,7.97
2017-03-15T03:57:49.214Z,7.96
2017-03-15T03:58:29.669Z,7.94
2017-03-15T03:59:10.103Z,7.97
2017-03-15T03:59:50.566Z,7.93
2017-03-15T04:00:31.006Z,7.93
2017-03-15T04:01:11.471Z,7.96
2017-03-15T04:01:51.923Z,7.9
2017-03-15T04:02:32.377Z,7.9
2017-03-15T04:03:12.805Z,7.96
2017-03-15T04:03:53.261Z,7.92
2017-03-15T04:04:33.698Z,7.96
2017-03-15T04:05:14.135Z,7.99
2017-03-15T04:05:54.581Z,7.93
2017-03-15T04:06:35.042Z,7.9
2017-03-15T04:07:15.485Z,7.97
2017-03-15T04:07:55.946Z,8.02
2017-03-15T04:08:36.377Z,8.02
2017-03-15T04:09:16.816Z,7.96
2017-03-15T04:09:57.258Z,7.9
2017-03-15T04:10:37.687Z,7.97
2017-03-15T04:11:18.132Z,7.9
2017-03-15T04:11:58.590Z,7.9
2017-03-15T04:12:39.016Z,7.96
2017-03-15T04:13:19.451Z,7.92
2017-03-15T04:13:59.897Z,7.97
2017-03-15T04:14:40.338Z,7.9
2017-03-15T04:15:20.792Z,7.96
2017-03-15T04:16:01.242Z,7.92
2017-03-15T04:16:41.673Z,7.94
2017-03-15T04:17:22.127Z,7.87
2017-03-15T04:18:02.585Z,7.84
2017-03-15T04:18:43.011Z,7.9
2017-03-15T04:19:23.452Z,7.92
2017-03-15T04:20:03.896Z,7.93
2017-03-15T04:20:44.334Z,7.97
2017-03-15T04:22:36.835Z,8.11
2017-03-15T04:23:17.235Z,7.94
2017-03-15T04:23:57.636Z,7.99
2017-03-15T04:24:38.045Z,8.04
2017-03-15T04:25:18.421Z,8.04
2017-03-15T04:25:58.812Z,8.02
2017-03-15T04:26:39.215Z,7.89
2017-03-15T04:28:31.836Z,7.97
2017-03-15T04:29:12.090Z,7.9
2017-03-15T04:31:24.956Z,7.82
2017-03-15T04:32:05.082Z,7.84
2017-03-15T04:32:45.486Z,7.9
2017-03-15T04:33:25.903Z,7.92
2017-03-15T04:34:06.331Z,7.81
2017-03-15T04:34:46.731Z,7.87
2017-03-15T04:35:27.141Z,7.89
2017-03-15T04:36:07.586Z,7.85
2017-03-15T04:36:47.977Z,7.78
2017-03-15T04:37:28.381Z,7.78
2017-03-15T04:39:16.123Z,7.78
2017-03-15T04:39:56.280Z,7.81
2017-03-15T04:40:36.609Z,7.77
2017-03-15T04:41:17.033Z,7.81
2017-03-15T04:41:57.421Z,7.81
2017-03-15T04:43:50.037Z,7.74
2017-03-15T04:44:30.387Z,7.69
2017-03-15T04:45:10.802Z,7.66
2017-03-15T04:45:51.192Z,7.69
2017-03-15T04:46:31.618Z,7.58
2017-03-15T04:47:12.043Z,7.58
2017-03-15T04:47:52.377Z,7.63
2017-03-15T04:48:32.777Z,7.59
2017-03-15T04:49:13.159Z,7.59
2017-03-15T04:49:53.598Z,7.63
2017-03-15T04:51:41.067Z,7.62
2017-03-15T04:52:21.426Z,7.62
2017-03-15T04:53:01.856Z,7.6
2017-03-15T04:55:14.502Z,7.47
2017-03-15T04:55:54.930Z,7.38
2017-03-15T04:56:35.401Z,7.37
2017-03-15T04:57:15.824Z,7.47
2017-03-15T04:57:56.263Z,7.42
2017-03-15T04:58:36.711Z,7.5
2017-03-15T04:59:17.138Z,7.4
2017-03-15T04:59:57.576Z,7.52
2017-03-15T05:00:38.026Z,7.47
2017-03-15T05:01:18.440Z,7.44
2017-03-15T05:01:58.866Z,7.53
2017-03-15T05:02:39.314Z,7.38
2017-03-15T05:03:19.755Z,7.62
2017-03-15T05:04:00.206Z,7.62
2017-03-15T05:04:40.627Z,7.67
2017-03-15T05:05:21.082Z,7.59
2017-03-15T05:06:01.519Z,7.58
2017-03-15T05:06:41.954Z,7.67
2017-03-15T05:07:22.412Z,7.72
2017-03-15T05:08:02.852Z,7.74
2017-03-15T05:08:43.271Z,7.78
2017-03-15T05:09:23.698Z,7.77
2017-03-15T05:10:04.140Z,7.74
2017-03-15T05:10:44.587Z,7.75
2017-03-15T05:11:25.032Z,7.72
2017-03-15T05:12:05.460Z,7.81
2017-03-15T05:12:45.899Z,7.79
2017-03-15T05:13:26.356Z,7.79
2017-03-15T05:14:06.779Z,7.75
2017-03-15T05:14:47.223Z,7.82
2017-03-15T05:15:27.671Z,7.72
2017-03-15T05:16:08.098Z,7.75
2017-03-15T05:16:48.539Z,7.78
2017-03-15T05:17:28.990Z,7.85
2017-03-15T05:18:09.440Z,7.85
2017-03-15T05:18:49.876Z,7.79
2017-03-15T05:19:30.329Z,7.66
2017-03-15T05:20:10.752Z,7.63
2017-03-15T05:20:51.170Z,7.58
2017-03-15T05:21:31.613Z,7.5
2017-03-15T05:22:12.057Z,7.45
2017-03-15T05:22:52.489Z,7.49
2017-03-15T05:23:32.911Z,7.34
2017-03-15T05:24:13.358Z,7.41
2017-03-15T05:24:53.813Z,7.38
2017-03-15T05:25:34.253Z,7.37
2017-03-15T05:26:14.703Z,7.2
2017-03-15T05:26:55.147Z,7.12
2017-03-15T05:27:35.586Z,7.08
2017-03-15T05:29:28.058Z,7.01
2017-03-15T05:30:08.495Z,7.07
2017-03-15T05:30:48.928Z,6.99
2017-03-15T05:31:29.450Z,7.02
2017-03-15T05:32:09.886Z,7.01
2017-03-15T05:32:50.323Z,6.9
2017-03-15T05:33:30.769Z,6.73
2017-03-15T05:34:11.216Z,6.61
2017-03-15T05:34:51.683Z,6.59
2017-03-15T05:35:32.075Z,6.66
2017-03-15T05:36:12.524Z,6.59
2017-03-15T05:36:52.958Z,6.51
2017-03-15T05:37:33.408Z,6.65
2017-03-15T05:38:13.851Z,6.59
2017-03-15T05:38:54.338Z,6.56
2017-03-15T05:39:34.716Z,6.48
2017-03-15T05:40:15.149Z,6.48
2017-03-15T05:40:55.576Z,6.56
2017-03-15T05:41:36.014Z,6.58
2017-03-15T05:42:16.484Z,6.59
2017-03-15T05:42:56.886Z,6.58
2017-03-15T05:43:37.334Z,6.68
2017-03-15T05:44:17.765Z,6.65
2017-03-15T05:44:58.205Z,6.59
2017-03-15T05:45:38.636Z,6.65
2017-03-15T05:46:19.079Z,6.43
2017-03-15T05:46:59.521Z,6.32
2017-03-15T05:47:39.954Z,6.35
2017-03-15T05:48:20.407Z,6.38
2017-03-15T05:49:00.823Z,6.41
2017-03-15T05:49:41.262Z,6.44
2017-03-15T05:50:21.715Z,6.46
2017-03-15T05:51:02.182Z,6.54
2017-03-15T05:51:42.631Z,6.71
2017-03-15T05:52:23.081Z,6.8
2017-03-15T05:53:03.517Z,6.8
2017-03-15T05:53:43.967Z,6.9
2017-03-15T05:54:24.408Z,6.87
2017-03-15T05:55:04.854Z,6.89
2017-03-15T05:55:45.269Z,6.83
2017-03-15T05:56:25.725Z,6.95
2017-03-15T05:57:06.155Z,6.89
2017-03-15T05:57:46.603Z,6.79
2017-03-15T05:58:27.040Z,6.76
2017-03-15T05:59:07.489Z,6.73
2017-03-15T05:59:47.922Z,6.76
2017-03-15T06:00:28.376Z,6.72
2017-03-15T06:01:08.841Z,6.77
2017-03-15T06:01:49.287Z,6.76
2017-03-15T06:02:29.725Z,6.81
2017-03-15T06:03:10.156Z,6.72
2017-03-15T06:03:50.605Z,6.79
2017-03-15T06:04:31.045Z,6.73
2017-03-15T06:05:11.487Z,6.89
2017-03-15T06:05:51.937Z,6.86
2017-03-15T06:06:32.379Z,6.89
2017-03-15T06:07:12.821Z,6.77
2017-03-15T06:07:53.260Z,6.94
2017-03-15T06:08:33.639Z,6.76
2017-03-15T06:10:11.037Z,6.58
2017-03-15T06:10:51.383Z,6.53
2017-03-15T06:11:31.759Z,6.65
2017-03-15T06:12:12.181Z,6.61
2017-03-15T06:12:52.589Z,6.65
2017-03-15T06:13:32.969Z,6.61
2017-03-15T06:14:13.355Z,6.62
2017-03-15T06:14:53.785Z,6.5
2017-03-15T06:15:34.272Z,6.53
2017-03-15T06:16:14.901Z,6.54
2017-03-15T06:18:12.531Z,6.32
2017-03-15T06:18:52.849Z,6.16
2017-03-15T06:19:33.238Z,6.04
2017-03-15T06:20:13.663Z,6.01
2017-03-15T06:20:54.083Z,6.14
2017-03-15T06:21:34.481Z,6.09
2017-03-15T06:22:14.910Z,6.19
2017-03-15T06:22:55.314Z,6.26
2017-03-15T06:24:53.132Z,6.26
2017-03-15T06:25:33.502Z,6.16
2017-03-15T06:26:13.910Z,6.09
2017-03-15T06:26:54.333Z,6.14
2017-03-15T06:27:34.727Z,6.29
2017-03-15T06:28:15.138Z,6.07
2017-03-15T06:30:07.696Z,6.28
2017-03-15T06:30:47.995Z,6.3
2017-03-15T06:31:28.390Z,6.44
2017-03-15T06:33:05.714Z,6.59
2017-03-15T06:33:46.193Z,6.66
2017-03-15T06:34:26.591Z,6.43
2017-03-15T06:35:07.002Z,6.22
2017-03-15T06:35:47.441Z,6.21
2017-03-15T06:36:27.868Z,6.1
2017-03-15T06:37:08.311Z,6.26
2017-03-15T06:37:48.746Z,6.32
2017-03-15T06:38:29.208Z,6.5
2017-03-15T06:39:09.696Z,6.58
2017-03-15T06:39:50.149Z,6.76
2017-03-15T06:40:30.574Z,6.83
2017-03-15T06:41:11.021Z,6.63
2017-03-15T06:41:51.447Z,6.62
2017-03-15T06:42:31.841Z,6.68
2017-03-15T06:43:12.307Z,6.72
2017-03-15T06:43:52.751Z,6.81
2017-03-15T06:44:33.216Z,6.91
2017-03-15T06:45:13.637Z,7.13
2017-03-15T06:45:54.031Z,7.2
2017-03-15T06:46:34.483Z,7.16
2017-03-15T06:47:14.958Z,7.32
2017-03-15T06:47:55.393Z,7.37
2017-03-15T06:48:35.849Z,7.44
2017-03-15T06:50:33.442Z,7.32
2017-03-15T06:51:13.902Z,7.16
2017-03-15T06:51:54.389Z,7.16
2017-03-15T06:52:34.865Z,7.16
2017-03-15T06:53:15.352Z,7.23
2017-03-15T06:53:55.854Z,7.23
2017-03-15T06:54:36.346Z,7.26
2017-03-15T06:55:16.819Z,7.31
2017-03-15T06:55:57.302Z,7.31
2017-03-15T06:56:37.785Z,7.37
2017-03-15T06:57:18.295Z,7.31
2017-03-15T06:57:58.759Z,7.38
2017-03-15T06:58:39.260Z,7.37
2017-03-15T06:59:19.750Z,7.32
2017-03-15T07:00:00.229Z,7.29
2017-03-15T07:00:40.727Z,7.4
2017-03-15T07:01:21.211Z,7.38
2017-03-15T07:02:01.716Z,7.4
2017-03-15T07:02:42.207Z,7.41
2017-03-15T07:03:22.684Z,7.47
2017-03-15T07:04:03.179Z,7.62
2017-03-15T07:04:43.665Z,7.62
2017-03-15T07:05:24.137Z,7.69
2017-03-15T07:06:04.651Z,7.6
2017-03-15T07:06:45.128Z,7.62
2017-03-15T07:07:25.620Z,7.72
2017-03-15T07:08:06.135Z,7.82
2017-03-15T07:08:46.606Z,7.97
2017-03-15T07:09:27.108Z,8.07
2017-03-15T07:10:07.595Z,8.22
2017-03-15T07:10:48.099Z,8.18
2017-03-15T07:11:28.579Z,8.2
2017-03-15T07:12:09.072Z,8.07
2017-03-15T07:12:49.552Z,8.12
2017-03-15T07:13:30.034Z,8.04
2017-03-15T07:14:10.524Z,8.02
2017-03-15T07:14:51.035Z,8.12
2017-03-15T07:15:31.515Z,8.17
2017-03-15T07:16:12.003Z,8.45
2017-03-15T07:16:52.483Z,8.58
2017-03-15T07:17:32.974Z,8.73
2017-03-15T07:18:13.469Z,8.94
2017-03-15T07:18:54.088Z,9.04
2017-03-15T07:19:34.570Z,8.94
2017-03-15T07:20:15.065Z,8.94
2017-03-15T07:20:55.548Z,9.89
2017-03-15T07:21:36.031Z,10.09
2017-03-15T07:22:16.520Z,10.36
2017-03-15T07:22:57.020Z,10.65
2017-03-15T07:23:37.548Z,10.47
2017-03-15T07:24:18.173Z,10.44
2017-03-15T07:24:58.654Z,10.65
2017-03-15T07:25:39.115Z,10.65
2017-03-15T07:26:19.566Z,11.03
2017-03-15T07:27:00.032Z,11.02
2017-03-15T07:27:40.490Z,10.88
2017-03-15T07:28:20.947Z,10.39
2017-03-15T07:29:01.415Z,10.36
2017-03-15T07:29:41.865Z,10.3
2017-03-15T07:31:34.434Z,9.99
2017-03-15T07:32:14.864Z,10.1
2017-03-15T07:32:55.369Z,10.04
2017-03-15T07:33:35.850Z,10.22
2017-03-15T07:34:16.340Z,10.21
2017-03-15T07:34:56.826Z,10.44
2017-03-15T07:35:37.318Z,10.39
2017-03-15T07:36:17.814Z,10.36
2017-03-15T07:36:58.313Z,10.6
2017-03-15T07:37:38.831Z,10.65
2017-03-15T07:38:19.304Z,10.98
2017-03-15T07:38:59.816Z,11.19
2017-03-15T07:39:40.332Z,11.44
2017-03-15T07:40:20.869Z,11.49
2017-03-15T07:41:01.367Z,11.57
2017-03-15T07:41:41.856Z,11.75
2017-03-15T07:42:22.355Z,11.94
2017-03-15T07:43:02.858Z,11.9
2017-03-15T07:43:43.364Z,12.05
2017-03-15T07:44:23.860Z,12.15
2017-03-15T07:45:04.358Z,12.08
2017-03-15T07:45:44.877Z,12.2
2017-03-15T07:46:25.497Z,12.06
2017-03-15T07:47:06.075Z,12.3
2017-03-15T07:47:46.590Z,12.19
2017-03-15T07:48:27.095Z,12.39
2017-03-15T07:49:07.600Z,12.49
2017-03-15T07:49:48.093Z,12.15
2017-03-15T07:50:28.590Z,12.13
2017-03-15T07:51:09.085Z,11.96
2017-03-15T07:51:49.589Z,12.05
2017-03-15T07:52:30.078Z,11.87
2017-03-15T07:53:10.574Z,11.89
2017-03-15T07:53:51.078Z,12.02
2017-03-15T07:54:31.589Z,12.38
2017-03-15T07:55:12.073Z,12.37
2017-03-15T07:55:52.573Z,12.59
2017-03-15T07:56:33.087Z,12.27
2017-03-15T07:57:13.579Z,12.31
2017-03-15T07:57:54.092Z,12.23
2017-03-15T07:58:34.578Z,12.45
2017-03-15T07:59:15.064Z,12.44
2017-03-15T07:59:55.563Z,12.27
2017-03-15T08:00:36.055Z,12.16
2017-03-15T08:01:16.546Z,12.34
2017-03-15T08:01:57.028Z,12.46
2017-03-15T08:02:37.571Z,12.31
2017-03-15T08:03:18.085Z,12.23
2017-03-15T08:03:58.578Z,12.21
2017-03-15T08:04:39.064Z,12.21
2017-03-15T08:05:19.556Z,12.27
2017-03-15T08:06:00.063Z,12.21
2017-03-15T08:06:40.564Z,12.59
2017-03-15T08:07:21.078Z,12.6
2017-03-15T08:08:01.571Z,12.54
2017-03-15T08:08:42.060Z,12.44
2017-03-15T08:09:22.567Z,12.34
2017-03-15T08:10:03.110Z,12.39
2017-03-15T08:10:43.639Z,12.24
2017-03-15T08:11:24.157Z,12.48
2017-03-15T08:12:04.658Z,12.66
2017-03-15T08:12:45.190Z,12.66
2017-03-15T08:13:25.668Z,12.56
2017-03-15T08:14:06.173Z,12.59
2017-03-15T08:15:53.658Z,12.59
2017-03-15T08:16:34.139Z,12.64
2017-03-15T08:17:14.700Z,12.56
2017-03-15T08:17:55.209Z,12.41
2017-03-15T08:18:35.727Z,12.34
2017-03-15T08:19:16.244Z,12.33
2017-03-15T08:21:08.867Z,12.7
2017-03-15T08:21:49.287Z,12.77
2017-03-15T08:22:29.795Z,13.18
2017-03-15T08:23:10.303Z,13.12
2017-03-15T08:23:50.804Z,13.3
2017-03-15T08:24:31.309Z,13.38
2017-03-15T08:25:11.834Z,13.49
2017-03-15T08:25:52.298Z,13.88
2017-03-15T08:26:32.818Z,14.2
2017-03-15T08:27:13.353Z,14.5
2017-03-15T08:27:53.843Z,14.74
2017-03-15T08:28:34.334Z,14.71
2017-03-15T08:29:14.890Z,14.98
2017-03-15T08:29:55.340Z,15.23
2017-03-15T08:32:08.241Z,15.67
2017-03-15T08:32:48.666Z,15.79
2017-03-15T08:33:29.205Z,15.94
2017-03-15T08:34:09.861Z,16.41
2017-03-15T08:34:50.341Z,16.78
2017-03-15T08:35:30.848Z,16.81
2017-03-15T08:36:11.353Z,15.64
2017-03-15T08:36:51.866Z,15.61
2017-03-15T08:37:32.356Z,15.51
2017-03-15T08:38:12.878Z,15.99
2017-03-15T08:38:53.398Z,16.22
2017-03-15T08:39:33.966Z,16.68
2017-03-15T08:40:14.444Z,16.67
2017-03-15T08:40:54.981Z,16.93
2017-03-15T08:41:35.525Z,16.75
2017-03-15T08:42:16.037Z,16.6
2017-03-15T08:42:56.554Z,16.25
2017-03-15T08:43:37.027Z,15.85
2017-03-15T08:44:17.518Z,15.68
2017-03-15T08:44:58.034Z,15.59
2017-03-15T08:45:38.546Z,15.75
2017-03-15T08:46:19.064Z,15.68
2017-03-15T08:46:59.560Z,15.66
2017-03-15T08:47:40.084Z,15.94
2017-03-15T08:48:20.596Z,15.76
2017-03-15T08:49:01.093Z,15.89
2017-03-15T08:49:41.626Z,15.36
2017-03-15T08:50:22.108Z,15.23
2017-03-15T08:51:02.588Z,15.23
2017-03-15T08:51:43.093Z,15.48
2017-03-15T08:52:23.554Z,15.46
2017-03-15T08:53:04.042Z,14.94
2017-03-15T08:53:44.522Z,15.2
2017-03-15T08:54:25.033Z,15.06
2017-03-15T08:55:05.546Z,15.49
2017-03-15T08:55:46.040Z,16.11
2017-03-15T08:56:26.534Z,16.18
2017-03-15T08:57:07.015Z,16.16
2017-03-15T08:57:47.520Z,16.07
2017-03-15T08:59:45.720Z,16.12
2017-03-15T09:00:26.074Z,16.83
2017-03-15T09:01:06.538Z,16.8
2017-03-15T09:01:47.042Z,16.56
2017-03-15T09:03:34.520Z,15.51
2017-03-15T09:05:27.097Z,15.56
2017-03-15T09:06:07.603Z,15.84
2017-03-15T09:06:48.096Z,15.79
2017-03-15T09:07:28.595Z,15.67
2017-03-15T09:08:09.454Z,16.23
2017-03-15T09:08:50.004Z,16.26
2017-03-15T09:09:30.870Z,16.58
2017-03-15T09:10:11.364Z,16.45
2017-03-15T09:10:51.858Z,16.78
2017-03-15T09:11:32.348Z,16.8
2017-03-15T09:12:12.751Z,16.74
2017-03-15T09:12:53.526Z,16.77
2017-03-15T09:13:34.027Z,16.37
2017-03-15T09:14:14.599Z,16.14
2017-03-15T09:14:55.121Z,16.45
2017-03-15T09:15:36.270Z,16.68
2017-03-15T09:16:16.928Z,16.85
2017-03-15T09:16:57.776Z,16.41
2017-03-15T09:17:38.386Z,17.06
2017-03-15T09:18:18.912Z,17.32
2017-03-15T09:18:59.383Z,17.35
2017-03-15T09:19:39.834Z,17.38
2017-03-15T09:20:20.286Z,16.92
2017-03-15T09:21:00.728Z,16.81
2017-03-15T09:21:41.266Z,16.98
2017-03-15T09:22:21.739Z,16.4
2017-03-15T09:23:59.350Z,16.44
2017-03-15T09:24:40.192Z,16.78
2017-03-15T09:25:20.939Z,16.98
2017-03-15T09:26:01.943Z,17.25
2017-03-15T09:26:42.562Z,17.11
2017-03-15T09:27:23.398Z,17.38
2017-03-15T09:29:36.531Z,17.23
2017-03-15T09:30:17.531Z,17.23
2017-03-15T09:30:58.151Z,17.51
2017-03-15T09:31:38.644Z,18.09
2017-03-15T09:32:19.165Z,18.24
2017-03-15T09:32:59.649Z,18.4
2017-03-15T09:33:40.139Z,18.28
2017-03-15T09:34:20.634Z,18.1
2017-03-15T09:35:01.132Z,18.18
2017-03-15T09:35:41.628Z,18.21
2017-03-15T09:36:22.093Z,18.61
2017-03-15T09:37:02.603Z,19.11
2017-03-15T09:39:00.267Z,18.83
2017-03-15T09:39:40.775Z,18.61
2017-03-15T09:40:21.232Z,18.46
2017-03-15T09:41:01.711Z,18.5
2017-03-15T09:41:42.213Z,18.8
2017-03-15T09:42:22.723Z,19.13
2017-03-15T09:44:15.278Z,17.88
2017-03-15T09:44:55.783Z,17.33
2017-03-15T09:45:36.255Z,16.62
2017-03-15T09:46:16.736Z,16.33
2017-03-15T09:46:57.225Z,16.58
2017-03-15T09:47:37.717Z,16.83
2017-03-15T09:48:18.203Z,16.78
2017-03-15T09:48:58.720Z,15.85
2017-03-15T09:49:39.219Z,15.76
2017-03-15T09:50:19.721Z,15.43
2017-03-15T09:51:00.211Z,15.64
2017-03-15T09:51:40.695Z,15.39
2017-03-15T09:52:21.225Z,16.09
2017-03-15T09:53:01.715Z,16.6
2017-03-15T09:53:42.210Z,16.98
2017-03-15T09:54:22.681Z,17.22
2017-03-15T09:55:03.240Z,17.41
2017-03-15T09:55:43.775Z,17.1
2017-03-15T09:56:24.245Z,16.42
2017-03-15T09:57:04.753Z,16.03